createdAt,value
2022-09-02T00:00:14.974Z,0.00
2022-09-02T00:01:14.977Z,0.01
2022-09-02T00:02:15.095Z,0.00
2022-09-02T00:03:15.145Z,0.00
2022-09-02T00:04:14.986Z,0.00
2022-09-02T00:05:15.006Z,0.00
2022-09-02T00:06:14.989Z,0.21
2022-09-02T00:07:14.999Z,0.02
2022-09-02T00:08:14.995Z,0.00
2022-09-02T00:09:15.001Z,0.00
2022-09-02T00:10:15.011Z,0.00
2022-09-02T00:11:14.997Z,0.01
2022-09-02T00:12:15.007Z,0.00
2022-09-02T00:13:15.046Z,0.00
2022-09-02T00:14:15.003Z,0.00
2022-09-02T00:15:15.014Z,0.00
2022-09-02T00:16:15.036Z,0.13
2022-09-02T00:17:15.026Z,0.28
2022-09-02T00:18:15.403Z,0.03
2022-09-02T00:19:15.021Z,0.25
2022-09-02T00:20:15.043Z,0.01
2022-09-02T00:21:15.007Z,0.00
2022-09-02T00:22:15.022Z,0.01
2022-09-02T00:23:15.039Z,0.00
2022-09-02T00:24:15.010Z,0.00
2022-09-02T00:25:15.012Z,0.00
2022-09-02T00:26:15.010Z,0.00
2022-09-02T00:27:15.052Z,0.00
2022-09-02T00:28:15.065Z,0.00
2022-09-02T00:29:15.020Z,0.00
2022-09-02T00:30:15.020Z,0.00
2022-09-02T00:31:15.086Z,0.00
2022-09-02T00:32:15.022Z,0.00
2022-09-02T00:33:15.025Z,0.00
2022-09-02T00:34:15.056Z,0.00
2022-09-02T00:35:15.021Z,0.00
2022-09-02T00:36:15.045Z,0.00
2022-09-02T00:37:15.048Z,0.00
2022-09-02T00:38:15.054Z,0.00
2022-09-02T00:39:15.065Z,0.00
2022-09-02T00:40:15.109Z,0.00
2022-09-02T00:41:15.015Z,0.00
2022-09-02T00:42:15.035Z,0.00
2022-09-02T00:43:15.056Z,0.00
2022-09-02T00:44:15.052Z,0.00
2022-09-02T00:45:15.067Z,0.00
2022-09-02T00:46:15.164Z,0.00
2022-09-02T00:47:15.036Z,0.00
2022-09-02T00:48:15.088Z,0.00
2022-09-02T00:49:15.063Z,0.01
2022-09-02T00:50:15.035Z,0.00
2022-09-02T00:51:15.048Z,0.00
2022-09-02T00:52:15.049Z,0.00
2022-09-02T00:53:15.056Z,0.00
2022-09-02T00:54:15.042Z,0.00
2022-09-02T00:55:15.044Z,0.00
2022-09-02T00:56:15.064Z,0.00
2022-09-02T00:57:15.069Z,0.00
2022-09-02T00:58:15.093Z,0.00
2022-09-02T00:59:15.054Z,0.03
2022-09-02T01:00:15.049Z,0.04
2022-09-02T01:01:15.182Z,0.00
2022-09-02T01:02:15.170Z,0.00
2022-09-02T01:03:15.096Z,0.00
2022-09-02T01:04:15.095Z,0.00
2022-09-02T01:05:15.071Z,0.00
2022-09-02T01:06:15.053Z,0.00
2022-09-02T01:07:15.079Z,0.00
2022-09-02T01:08:15.080Z,0.00
2022-09-02T01:09:15.098Z,0.00
2022-09-02T01:10:15.055Z,0.00
2022-09-02T01:11:15.071Z,0.00
2022-09-02T01:12:15.094Z,0.00
2022-09-02T01:13:15.109Z,0.00
2022-09-02T01:14:15.064Z,0.00
2022-09-02T01:15:15.066Z,0.00
2022-09-02T01:16:15.157Z,0.01
2022-09-02T01:17:15.102Z,0.00
2022-09-02T01:18:15.096Z,0.00
2022-09-02T01:19:15.079Z,0.00
2022-09-02T01:20:15.084Z,0.11
2022-09-02T01:21:15.093Z,0.19
2022-09-02T01:22:15.074Z,0.00
2022-09-02T01:23:15.115Z,0.05
2022-09-02T01:24:15.091Z,0.01
2022-09-02T01:25:15.112Z,0.01
2022-09-02T01:26:15.119Z,0.00
2022-09-02T01:27:15.116Z,0.42
2022-09-02T01:28:15.121Z,0.01
2022-09-02T01:29:15.075Z,0.00
2022-09-02T01:30:15.087Z,0.00
2022-09-02T01:31:15.177Z,0.00
2022-09-02T01:32:15.089Z,0.00
2022-09-02T01:33:15.101Z,0.00
2022-09-02T01:34:15.122Z,0.01
2022-09-02T01:35:15.129Z,0.00
2022-09-02T01:36:15.142Z,0.00
2022-09-02T01:37:15.147Z,0.04
2022-09-02T01:38:15.161Z,0.00
2022-09-02T01:39:15.168Z,0.03
2022-09-02T01:40:15.193Z,0.00
2022-09-02T01:41:15.164Z,0.00
2022-09-02T01:42:15.172Z,0.00
2022-09-02T01:43:15.221Z,0.00
2022-09-02T01:44:15.220Z,0.02
2022-09-02T01:45:15.251Z,0.00
2022-09-02T01:46:15.274Z,0.00
2022-09-02T01:47:15.234Z,0.00
2022-09-02T01:48:21.561Z,0.00
2022-09-02T01:49:15.262Z,0.00
2022-09-02T01:50:15.279Z,0.00
2022-09-02T01:51:15.271Z,0.00
2022-09-02T01:52:15.260Z,0.00
2022-09-02T01:53:15.284Z,0.01
2022-09-02T01:54:15.268Z,0.00
2022-09-02T01:55:15.274Z,0.00
2022-09-02T01:56:15.270Z,0.00
2022-09-02T01:57:15.290Z,0.00
2022-09-02T01:58:15.299Z,0.00
2022-09-02T01:59:15.252Z,0.00
2022-09-02T02:00:15.270Z,0.00
2022-09-02T02:01:15.321Z,0.00
2022-09-02T02:02:15.324Z,0.00
2022-09-02T02:03:15.307Z,0.00
2022-09-02T02:04:15.297Z,0.00
2022-09-02T02:05:15.266Z,0.00
2022-09-02T02:06:15.295Z,0.00
2022-09-02T02:07:15.285Z,0.00
2022-09-02T02:08:15.266Z,0.00
2022-09-02T02:09:15.277Z,0.00
2022-09-02T02:10:15.296Z,0.00
2022-09-02T02:11:15.313Z,0.00
2022-09-02T02:12:15.308Z,0.00
2022-09-02T02:13:15.283Z,0.00
2022-09-02T02:14:15.272Z,0.00
2022-09-02T02:15:15.302Z,0.00
2022-09-02T02:16:15.341Z,0.00
2022-09-02T02:17:15.314Z,0.00
2022-09-02T02:18:15.329Z,0.00
2022-09-02T02:19:15.278Z,0.00
2022-09-02T02:20:15.319Z,0.00
2022-09-02T02:21:15.284Z,0.00
2022-09-02T02:22:15.318Z,0.00
2022-09-02T02:23:15.330Z,0.00
2022-09-02T02:24:15.288Z,0.00
2022-09-02T02:25:15.303Z,0.00
2022-09-02T02:26:15.329Z,0.00
2022-09-02T02:27:15.294Z,0.00
2022-09-02T02:28:15.303Z,0.00
2022-09-02T02:29:15.344Z,0.00
2022-09-02T02:30:15.307Z,0.00
2022-09-02T02:31:15.352Z,0.00
2022-09-02T02:32:15.316Z,0.00
2022-09-02T02:33:15.303Z,0.00
2022-09-02T02:34:15.297Z,0.00
2022-09-02T02:35:15.324Z,0.00
2022-09-02T02:36:15.294Z,0.00
2022-09-02T02:37:15.335Z,0.00
2022-09-02T02:38:15.646Z,0.00
2022-09-02T02:39:15.326Z,0.00
2022-09-02T02:40:15.381Z,0.00
2022-09-02T02:41:15.340Z,0.00
2022-09-02T02:42:15.339Z,0.00
2022-09-02T02:43:15.317Z,0.00
2022-09-02T02:44:15.336Z,0.00
2022-09-02T02:45:15.480Z,0.00
2022-09-02T02:46:15.346Z,0.01
2022-09-02T02:47:15.309Z,0.00
2022-09-02T02:48:15.360Z,0.00
2022-09-02T02:49:15.317Z,0.00
2022-09-02T02:50:15.344Z,0.00
2022-09-02T02:51:15.312Z,0.00
2022-09-02T02:52:15.325Z,0.00
2022-09-02T02:53:15.390Z,0.00
2022-09-02T02:54:15.350Z,0.00
2022-09-02T02:55:15.357Z,0.00
2022-09-02T02:56:15.311Z,0.00
2022-09-02T02:57:15.357Z,0.00
2022-09-02T02:58:16.613Z,0.00
2022-09-02T02:59:15.328Z,0.00
2022-09-02T03:00:15.358Z,0.00
2022-09-02T03:01:15.338Z,0.00
2022-09-02T03:02:15.462Z,0.00
2022-09-02T03:03:15.348Z,0.00
2022-09-02T03:04:15.371Z,0.00
2022-09-02T03:05:15.364Z,0.00
2022-09-02T03:06:15.337Z,0.00
2022-09-02T03:07:15.355Z,0.00
2022-09-02T03:08:15.379Z,0.00
2022-09-02T03:09:15.368Z,0.02
2022-09-02T03:10:15.331Z,0.00
2022-09-02T03:11:15.357Z,0.00
2022-09-02T03:12:15.368Z,0.00
2022-09-02T03:13:15.387Z,0.00
2022-09-02T03:14:15.380Z,0.00
2022-09-02T03:15:15.379Z,0.00
2022-09-02T03:16:15.408Z,0.00
2022-09-02T03:17:15.372Z,0.00
2022-09-02T03:18:15.368Z,0.00
2022-09-02T03:19:15.362Z,0.00
2022-09-02T03:20:15.375Z,0.00
2022-09-02T03:21:15.352Z,0.00
2022-09-02T03:22:15.345Z,0.00
2022-09-02T03:23:15.383Z,0.00
2022-09-02T03:24:15.363Z,0.00
2022-09-02T03:25:15.350Z,0.00
2022-09-02T03:26:15.385Z,0.00
2022-09-02T03:27:15.354Z,0.00
2022-09-02T03:28:15.403Z,0.00
2022-09-02T03:29:15.346Z,0.00
2022-09-02T03:30:15.402Z,0.00
2022-09-02T03:31:15.415Z,0.00
2022-09-02T03:32:15.382Z,0.00
2022-09-02T03:33:15.459Z,0.00
2022-09-02T03:34:15.398Z,0.00
2022-09-02T03:35:15.373Z,0.00
2022-09-02T03:36:15.410Z,0.00
2022-09-02T03:37:15.392Z,0.00
2022-09-02T03:38:15.400Z,0.00
2022-09-02T03:39:15.383Z,0.00
2022-09-02T03:40:15.401Z,0.00
2022-09-02T03:41:15.391Z,0.00
2022-09-02T03:42:19.337Z,0.00
2022-09-02T03:43:15.409Z,0.00
2022-09-02T03:44:15.374Z,0.00
2022-09-02T03:45:15.406Z,0.00
2022-09-02T03:46:15.469Z,0.00
2022-09-02T03:47:15.404Z,0.00
2022-09-02T03:48:15.414Z,0.00
2022-09-02T03:49:15.420Z,0.00
2022-09-02T03:50:15.414Z,0.00
2022-09-02T03:51:15.412Z,0.00
2022-09-02T03:52:15.404Z,0.00
2022-09-02T03:53:19.656Z,0.00
2022-09-02T03:54:15.419Z,0.00
2022-09-02T03:55:15.387Z,0.00
2022-09-02T03:56:15.421Z,0.00
2022-09-02T03:57:15.396Z,0.00
2022-09-02T03:58:15.443Z,0.00
2022-09-02T03:59:15.433Z,0.00
2022-09-02T04:00:15.421Z,0.00
2022-09-02T04:01:15.470Z,0.00
2022-09-02T04:02:15.505Z,0.00
2022-09-02T04:03:15.624Z,0.00
2022-09-02T04:04:17.746Z,0.00
2022-09-02T04:05:15.930Z,0.00
2022-09-02T04:06:15.401Z,0.00
2022-09-02T04:07:15.441Z,0.00
2022-09-02T04:08:15.419Z,0.00
2022-09-02T04:09:15.404Z,0.00
2022-09-02T04:10:15.422Z,0.00
2022-09-02T04:11:15.404Z,0.00
2022-09-02T04:12:15.431Z,0.00
2022-09-02T04:13:15.435Z,0.00
2022-09-02T04:14:15.440Z,0.00
2022-09-02T04:15:15.420Z,0.00
2022-09-02T04:16:15.485Z,0.00
2022-09-02T04:17:15.409Z,0.00
2022-09-02T04:18:15.450Z,0.00
2022-09-02T04:19:15.426Z,0.00
2022-09-02T04:20:15.452Z,0.00
2022-09-02T04:21:15.453Z,0.00
2022-09-02T04:22:15.428Z,0.00
2022-09-02T04:23:15.445Z,0.00
2022-09-02T04:24:15.442Z,0.00
2022-09-02T04:25:15.450Z,0.00
2022-09-02T04:26:15.425Z,0.00
2022-09-02T04:27:15.459Z,0.00
2022-09-02T04:28:15.458Z,0.00
2022-09-02T04:29:15.459Z,0.00
2022-09-02T04:30:15.451Z,0.00
2022-09-02T04:31:15.519Z,0.00
2022-09-02T04:32:15.431Z,0.00
2022-09-02T04:33:15.447Z,0.00
2022-09-02T04:34:15.458Z,0.00
2022-09-02T04:35:15.469Z,0.00
2022-09-02T04:36:15.459Z,0.00
2022-09-02T04:37:15.443Z,0.00
2022-09-02T04:38:15.459Z,0.00
2022-09-02T04:39:15.458Z,0.00
2022-09-02T04:40:15.463Z,0.00
2022-09-02T04:41:15.453Z,0.00
2022-09-02T04:42:15.438Z,0.00
2022-09-02T04:43:15.465Z,0.00
2022-09-02T04:44:15.436Z,0.00
2022-09-02T04:45:15.479Z,0.00
2022-09-02T04:46:15.743Z,0.00
2022-09-02T04:47:15.451Z,0.00
2022-09-02T04:48:15.452Z,0.00
2022-09-02T04:49:15.465Z,0.00
2022-09-02T04:50:15.479Z,0.00
2022-09-02T04:51:15.480Z,0.00
2022-09-02T04:52:15.448Z,0.00
2022-09-02T04:53:15.473Z,0.00
2022-09-02T04:54:15.486Z,0.00
2022-09-02T04:55:15.465Z,0.00
2022-09-02T04:56:15.488Z,0.00
2022-09-02T04:57:15.454Z,0.00
2022-09-02T04:58:15.501Z,0.00
2022-09-02T04:59:15.462Z,0.00
2022-09-02T05:00:15.452Z,0.00
2022-09-02T05:01:15.564Z,0.00
2022-09-02T05:02:15.665Z,0.00
2022-09-02T05:03:15.503Z,0.00
2022-09-02T05:04:15.466Z,0.00
2022-09-02T05:05:15.486Z,0.00
2022-09-02T05:06:15.504Z,0.00
2022-09-02T05:07:15.493Z,0.00
2022-09-02T05:08:15.484Z,0.00
2022-09-02T05:09:15.526Z,0.00
2022-09-02T05:10:15.469Z,0.00
2022-09-02T05:11:15.490Z,0.00
2022-09-02T05:12:15.506Z,0.00
2022-09-02T05:13:15.511Z,0.00
2022-09-02T05:14:15.513Z,0.00
2022-09-02T05:15:15.479Z,0.00
2022-09-02T05:16:15.572Z,0.00
2022-09-02T05:17:15.481Z,0.00
2022-09-02T05:18:15.494Z,0.00
2022-09-02T05:19:15.519Z,0.00
2022-09-02T05:20:15.531Z,0.00
2022-09-02T05:21:15.512Z,0.00
2022-09-02T05:22:15.497Z,0.00
2022-09-02T05:23:15.532Z,0.00
2022-09-02T05:24:15.488Z,0.00
2022-09-02T05:25:15.495Z,0.00
2022-09-02T05:26:15.516Z,0.00
2022-09-02T05:27:15.515Z,0.00
2022-09-02T05:28:15.504Z,0.00
2022-09-02T05:29:15.520Z,0.00
2022-09-02T05:30:15.527Z,0.00
2022-09-02T05:31:15.525Z,0.00
2022-09-02T05:32:15.529Z,0.00
2022-09-02T05:33:15.600Z,0.00
2022-09-02T05:34:15.539Z,0.00
2022-09-02T05:35:15.521Z,0.00
2022-09-02T05:36:15.533Z,0.00
2022-09-02T05:37:15.498Z,0.00
2022-09-02T05:38:15.536Z,0.00
2022-09-02T05:39:15.542Z,0.00
2022-09-02T05:40:15.576Z,0.00
2022-09-02T05:41:15.535Z,0.00
2022-09-02T05:42:15.514Z,0.00
2022-09-02T05:43:15.498Z,0.00
2022-09-02T05:44:15.541Z,0.00
2022-09-02T05:45:16.490Z,0.00
2022-09-02T05:46:15.565Z,0.00
2022-09-02T05:47:15.555Z,0.00
2022-09-02T05:48:15.524Z,0.00
2022-09-02T05:49:15.517Z,0.00
2022-09-02T05:50:15.518Z,0.00
2022-09-02T05:51:15.554Z,0.00
2022-09-02T05:52:15.531Z,0.00
2022-09-02T05:53:15.733Z,0.00
2022-09-02T05:54:15.550Z,0.00
2022-09-02T05:55:15.558Z,0.00
2022-09-02T05:56:15.551Z,0.00
2022-09-02T05:57:15.530Z,0.00
2022-09-02T05:58:15.529Z,0.00
2022-09-02T05:59:15.545Z,0.00
2022-09-02T06:00:17.872Z,0.00
2022-09-02T06:01:15.619Z,0.00
2022-09-02T06:02:15.756Z,0.00
2022-09-02T06:03:15.665Z,0.00
2022-09-02T06:04:15.632Z,0.00
2022-09-02T06:05:15.634Z,0.00
2022-09-02T06:06:15.672Z,0.00
2022-09-02T06:07:15.668Z,0.00
2022-09-02T06:08:15.680Z,0.00
2022-09-02T06:09:15.679Z,0.00
2022-09-02T06:10:15.702Z,0.00
2022-09-02T06:11:15.748Z,0.00
2022-09-02T06:12:15.739Z,0.00
2022-09-02T06:13:15.751Z,0.00
2022-09-02T06:14:15.753Z,0.00
2022-09-02T06:15:15.763Z,0.00
2022-09-02T06:16:15.855Z,0.00
2022-09-02T06:17:15.818Z,0.00
2022-09-02T06:18:15.797Z,0.00
2022-09-02T06:19:19.620Z,0.00
2022-09-02T06:20:15.799Z,0.00
2022-09-02T06:21:15.822Z,0.00
2022-09-02T06:22:15.819Z,0.00
2022-09-02T06:23:15.798Z,0.00
2022-09-02T06:24:15.786Z,0.00
2022-09-02T06:25:15.829Z,0.00
2022-09-02T06:26:15.798Z,0.00
2022-09-02T06:27:15.825Z,0.02
2022-09-02T06:28:15.847Z,0.00
2022-09-02T06:29:15.795Z,0.01
2022-09-02T06:30:15.840Z,0.00
2022-09-02T06:31:15.939Z,0.00
2022-09-02T06:32:15.855Z,0.00
2022-09-02T06:33:15.809Z,0.00
2022-09-02T06:34:15.837Z,0.00
2022-09-02T06:35:15.829Z,0.00
2022-09-02T06:36:15.816Z,0.00
2022-09-02T06:37:15.833Z,0.00
2022-09-02T06:38:15.842Z,0.00
2022-09-02T06:39:15.802Z,0.00
2022-09-02T06:40:15.823Z,0.00
2022-09-02T06:41:15.850Z,0.00
2022-09-02T06:42:15.829Z,0.00
2022-09-02T06:43:15.852Z,0.00
2022-09-02T06:44:15.807Z,0.00
2022-09-02T06:45:15.832Z,0.00
2022-09-02T06:46:15.847Z,0.00
2022-09-02T06:47:15.837Z,0.00
2022-09-02T06:48:15.839Z,0.00
2022-09-02T06:49:15.845Z,0.00
2022-09-02T06:50:15.859Z,0.00
2022-09-02T06:51:15.831Z,0.00
2022-09-02T06:52:15.835Z,0.00
2022-09-02T06:53:15.865Z,0.00
2022-09-02T06:54:15.836Z,0.00
2022-09-02T06:55:15.864Z,0.00
2022-09-02T06:56:15.858Z,0.00
2022-09-02T06:57:15.858Z,0.00
2022-09-02T06:58:15.869Z,0.00
2022-09-02T06:59:15.863Z,0.00
2022-09-02T07:00:15.868Z,0.00
2022-09-02T07:01:15.922Z,0.00
2022-09-02T07:03:15.858Z,0.00
2022-09-02T07:04:15.870Z,0.00
2022-09-02T07:05:15.850Z,0.00
2022-09-02T07:06:15.872Z,0.00
2022-09-02T07:07:15.855Z,0.00
2022-09-02T07:08:15.880Z,0.00
2022-09-02T07:09:15.888Z,0.00
2022-09-02T07:10:15.839Z,0.00
2022-09-02T07:11:15.872Z,0.00
2022-09-02T07:12:15.892Z,0.00
2022-09-02T07:13:15.886Z,0.00
2022-09-02T07:14:15.880Z,0.00
2022-09-02T07:15:15.892Z,0.00
2022-09-02T07:16:22.699Z,0.00
2022-09-02T07:17:15.940Z,0.00
2022-09-02T07:18:15.860Z,0.00
2022-09-02T07:19:20.379Z,0.00
2022-09-02T07:20:15.892Z,0.00
2022-09-02T07:21:15.902Z,0.00
2022-09-02T07:22:18.765Z,0.00
2022-09-02T07:23:15.902Z,0.00
2022-09-02T07:24:15.884Z,0.00
2022-09-02T07:25:15.876Z,0.00
2022-09-02T07:26:15.897Z,0.00
2022-09-02T07:27:15.905Z,0.00
2022-09-02T07:28:15.910Z,0.00
2022-09-02T07:29:15.911Z,0.00
2022-09-02T07:30:15.898Z,0.00
2022-09-02T07:31:15.981Z,0.00
2022-09-02T07:32:15.916Z,0.02
2022-09-02T07:33:15.904Z,0.00
2022-09-02T07:34:15.899Z,0.00
2022-09-02T07:35:15.915Z,0.00
2022-09-02T07:36:15.909Z,0.00
2022-09-02T07:37:15.899Z,0.00
2022-09-02T07:38:15.875Z,0.00
2022-09-02T07:39:15.910Z,0.00
2022-09-02T07:40:15.963Z,0.00
2022-09-02T07:41:15.922Z,0.00
2022-09-02T07:42:15.992Z,0.00
2022-09-02T07:43:15.922Z,0.69
2022-09-02T07:44:15.914Z,0.13
2022-09-02T07:45:15.918Z,0.00
2022-09-02T07:46:15.983Z,0.00
2022-09-02T07:47:15.901Z,0.00
2022-09-02T07:48:15.923Z,0.00
2022-09-02T07:49:15.911Z,0.03
2022-09-02T07:50:21.056Z,0.24
2022-09-02T07:51:15.891Z,0.02
2022-09-02T07:52:15.928Z,0.03
2022-09-02T07:53:15.901Z,0.00
2022-09-02T07:54:15.933Z,0.03
2022-09-02T07:55:15.932Z,0.02
2022-09-02T07:56:15.942Z,0.00
2022-09-02T07:57:15.906Z,0.01
2022-09-02T07:58:16.077Z,0.03
2022-09-02T07:59:15.925Z,0.02
2022-09-02T08:00:15.917Z,0.00
2022-09-02T08:01:20.012Z,0.00
2022-09-02T08:02:15.993Z,0.00
2022-09-02T08:03:15.937Z,0.00
2022-09-02T08:04:15.945Z,0.00
2022-09-02T08:05:15.949Z,0.18
2022-09-02T08:06:15.931Z,0.00
2022-09-02T08:07:15.924Z,0.00
2022-09-02T08:08:15.952Z,0.00
2022-09-02T08:09:15.919Z,0.10
2022-09-02T08:10:15.928Z,0.02
2022-09-02T08:11:15.951Z,0.00
2022-09-02T08:12:18.898Z,0.00
2022-09-02T08:13:15.938Z,0.00
2022-09-02T08:14:16.791Z,0.00
2022-09-02T08:15:15.951Z,0.00
2022-09-02T08:16:16.022Z,0.00
2022-09-02T08:17:15.972Z,0.00
2022-09-02T08:18:21.055Z,0.00
2022-09-02T08:19:15.930Z,0.00
2022-09-02T08:20:15.932Z,0.00
2022-09-02T08:21:15.976Z,0.00
2022-09-02T08:22:15.965Z,0.00
2022-09-02T08:23:19.660Z,0.00
2022-09-02T08:24:15.945Z,0.00
2022-09-02T08:25:15.944Z,0.00
2022-09-02T08:26:15.967Z,0.08
2022-09-02T08:27:15.955Z,0.00
2022-09-02T08:28:15.944Z,0.00
2022-09-02T08:29:15.949Z,0.00
2022-09-02T08:30:15.979Z,0.00
2022-09-02T08:31:15.986Z,0.00
2022-09-02T08:32:16.023Z,0.00
2022-09-02T08:33:15.977Z,0.00
2022-09-02T08:34:15.951Z,0.00
2022-09-02T08:35:15.984Z,0.00
2022-09-02T08:36:15.964Z,0.00
2022-09-02T08:37:16.016Z,0.00
2022-09-02T08:38:15.991Z,0.00
2022-09-02T08:39:15.969Z,0.00
2022-09-02T08:40:16.044Z,0.00
2022-09-02T08:41:15.958Z,0.00
2022-09-02T08:42:16.011Z,0.00
2022-09-02T08:43:15.984Z,0.00
2022-09-02T08:44:15.980Z,0.00
2022-09-02T08:45:15.973Z,0.53
2022-09-02T08:46:16.001Z,0.35
2022-09-02T08:47:16.013Z,0.00
2022-09-02T08:48:15.997Z,0.00
2022-09-02T08:49:16.004Z,0.01
2022-09-02T08:50:15.972Z,0.00
2022-09-02T08:51:16.010Z,0.00
2022-09-02T08:52:17.828Z,0.22
2022-09-02T08:53:16.017Z,0.00
2022-09-02T08:54:16.012Z,0.00
2022-09-02T08:55:15.980Z,0.00
2022-09-02T08:56:16.002Z,0.01
2022-09-02T08:57:16.005Z,0.00
2022-09-02T08:58:15.990Z,0.00
2022-09-02T08:59:16.010Z,0.00
2022-09-02T09:00:16.029Z,0.77
2022-09-02T09:01:16.105Z,0.06
2022-09-02T09:02:17.753Z,0.36
2022-09-02T09:03:16.036Z,1.88
2022-09-02T09:04:15.995Z,1.31
2022-09-02T09:05:16.017Z,0.47
2022-09-02T09:06:15.995Z,0.00
2022-09-02T09:07:16.019Z,0.00
2022-09-02T09:08:16.132Z,0.00
2022-09-02T09:09:15.999Z,0.00
2022-09-02T09:10:15.998Z,0.00
2022-09-02T09:11:16.018Z,0.01
2022-09-02T09:12:16.019Z,0.11
2022-09-02T09:13:16.002Z,0.69
2022-09-02T09:14:16.002Z,0.80
2022-09-02T09:15:16.026Z,0.02
2022-09-02T09:16:16.028Z,0.29
2022-09-02T09:17:16.018Z,0.48
2022-09-02T09:18:16.041Z,1.16
2022-09-02T09:19:16.015Z,1.15
2022-09-02T09:20:16.043Z,1.33
2022-09-02T09:21:16.037Z,1.38
2022-09-02T09:22:16.062Z,1.49
2022-09-02T09:23:17.726Z,0.49
2022-09-02T09:24:16.042Z,0.81
2022-09-02T09:25:16.030Z,1.00
2022-09-02T09:26:16.054Z,1.53
2022-09-02T09:27:16.073Z,1.97
2022-09-02T09:28:16.022Z,1.11
2022-09-02T09:29:16.034Z,1.23
2022-09-02T09:30:16.030Z,1.12
2022-09-02T09:31:16.117Z,1.13
2022-09-02T09:32:16.056Z,1.04
2022-09-02T09:33:16.049Z,0.53
2022-09-02T09:34:16.068Z,1.27
2022-09-02T09:35:16.038Z,0.48
2022-09-02T09:36:16.046Z,0.89
2022-09-02T09:37:16.042Z,0.40
2022-09-02T09:38:16.050Z,0.91
2022-09-02T09:39:16.064Z,1.06
2022-09-02T09:40:16.086Z,1.27
2022-09-02T09:41:16.075Z,0.73
2022-09-02T09:42:16.063Z,2.26
2022-09-02T09:43:16.419Z,1.46
2022-09-02T09:44:16.056Z,1.37
2022-09-02T09:45:16.086Z,0.66
2022-09-02T09:46:16.141Z,0.01
2022-09-02T09:47:17.900Z,1.47
2022-09-02T09:48:16.081Z,1.28
2022-09-02T09:49:16.066Z,2.61
2022-09-02T09:50:16.186Z,0.86
2022-09-02T09:51:16.073Z,2.11
2022-09-02T09:52:16.055Z,1.17
2022-09-02T09:53:16.058Z,1.22
2022-09-02T09:54:16.061Z,0.04
2022-09-02T09:55:16.454Z,1.14
2022-09-02T09:56:16.071Z,0.62
2022-09-02T09:57:16.171Z,0.07
2022-09-02T09:58:16.104Z,0.97
2022-09-02T09:59:16.098Z,0.36
2022-09-02T10:00:16.138Z,1.07
2022-09-02T10:01:16.144Z,0.99
2022-09-02T10:02:16.100Z,1.83
2022-09-02T10:03:16.110Z,0.89
2022-09-02T10:04:39.265Z,1.06
2022-09-02T10:05:16.076Z,0.52
2022-09-02T10:06:16.097Z,1.63
2022-09-02T10:07:16.092Z,0.76
2022-09-02T10:08:16.091Z,1.06
2022-09-02T10:09:16.093Z,0.33
2022-09-02T10:10:16.164Z,1.77
2022-09-02T10:11:16.128Z,0.42
2022-09-02T10:12:16.107Z,0.76
2022-09-02T10:13:16.151Z,0.32
2022-09-02T10:14:16.102Z,1.32
2022-09-02T10:15:16.109Z,1.01
2022-09-02T10:16:16.227Z,0.26
2022-09-02T10:17:16.131Z,1.27
2022-09-02T10:18:16.119Z,1.19
2022-09-02T10:19:16.096Z,1.03
2022-09-02T10:20:16.161Z,0.87
2022-09-02T10:21:16.369Z,1.30
2022-09-02T10:22:16.145Z,1.38
2022-09-02T10:23:16.123Z,1.69
2022-09-02T10:24:16.120Z,0.85
2022-09-02T10:25:16.113Z,1.28
2022-09-02T10:26:16.207Z,1.02
2022-09-02T10:27:16.132Z,1.62
2022-09-02T10:28:16.127Z,1.51
2022-09-02T10:29:16.140Z,0.57
2022-09-02T10:30:16.229Z,1.83
2022-09-02T10:31:16.160Z,1.49
2022-09-02T10:32:16.125Z,1.27
2022-09-02T10:33:16.148Z,1.70
2022-09-02T10:34:16.120Z,0.59
2022-09-02T10:35:16.123Z,1.45
2022-09-02T10:36:20.858Z,1.24
2022-09-02T10:37:16.138Z,1.11
2022-09-02T10:38:16.137Z,1.05
2022-09-02T10:39:16.133Z,0.71
2022-09-02T10:40:16.295Z,0.76
2022-09-02T10:41:16.155Z,0.11
2022-09-02T10:42:16.162Z,0.83
2022-09-02T10:43:16.161Z,1.22
2022-09-02T10:44:16.148Z,1.01
2022-09-02T10:45:16.151Z,1.27
2022-09-02T10:46:16.203Z,1.32
2022-09-02T10:47:16.176Z,1.70
2022-09-02T10:48:16.154Z,0.81
2022-09-02T10:49:16.188Z,0.47
2022-09-02T10:50:16.155Z,0.90
2022-09-02T10:51:16.185Z,0.60
2022-09-02T10:53:16.187Z,0.54
2022-09-02T10:54:16.171Z,0.78
2022-09-02T10:55:16.171Z,1.30
2022-09-02T10:56:16.158Z,2.18
2022-09-02T10:57:16.194Z,1.64
2022-09-02T10:58:16.167Z,1.30
2022-09-02T10:59:16.181Z,1.77
2022-09-02T11:00:16.178Z,1.79
2022-09-02T11:01:16.318Z,1.17
2022-09-02T11:02:16.201Z,0.91
2022-09-02T11:03:16.328Z,0.95
2022-09-02T11:04:16.178Z,1.17
2022-09-02T11:05:16.217Z,0.77
2022-09-02T11:06:16.221Z,0.03
2022-09-02T11:07:16.211Z,0.14
2022-09-02T11:08:16.202Z,1.22
2022-09-02T11:09:16.238Z,1.10
2022-09-02T11:10:16.186Z,0.84
2022-09-02T11:11:16.217Z,0.18
2022-09-02T11:12:16.187Z,0.00
2022-09-02T11:13:16.214Z,0.00
2022-09-02T11:14:16.216Z,0.32
2022-09-02T11:15:16.208Z,0.25
2022-09-02T11:16:16.260Z,0.41
2022-09-02T11:17:16.201Z,0.02
2022-09-02T11:18:16.203Z,0.40
2022-09-02T11:19:16.203Z,0.58
2022-09-02T11:20:16.205Z,0.38
2022-09-02T11:21:16.219Z,1.34
2022-09-02T11:22:16.232Z,0.41
2022-09-02T11:23:16.202Z,0.67
2022-09-02T11:24:16.235Z,0.82
2022-09-02T11:25:16.220Z,0.97
2022-09-02T11:26:16.242Z,1.16
2022-09-02T11:27:32.260Z,1.27
2022-09-02T11:28:16.241Z,1.51
2022-09-02T11:29:16.203Z,1.29
2022-09-02T11:30:16.228Z,1.44
2022-09-02T11:31:16.255Z,0.70
2022-09-02T11:32:16.242Z,0.05
2022-09-02T11:33:17.339Z,0.77
2022-09-02T11:34:16.227Z,0.56
2022-09-02T11:35:16.225Z,0.06
2022-09-02T11:36:16.267Z,0.00
2022-09-02T11:37:19.318Z,0.21
2022-09-02T11:38:16.228Z,1.05
2022-09-02T11:39:21.892Z,1.78
2022-09-02T11:40:33.831Z,1.34
2022-09-02T11:41:34.064Z,1.07
2022-09-02T11:42:16.320Z,1.35
2022-09-02T11:43:16.263Z,0.27
2022-09-02T11:44:16.243Z,1.47
2022-09-02T11:45:16.268Z,0.19
2022-09-02T11:46:16.376Z,0.55
2022-09-02T11:47:16.238Z,0.07
2022-09-02T11:48:16.238Z,1.55
2022-09-02T11:49:16.238Z,0.74
2022-09-02T11:50:16.240Z,0.78
2022-09-02T11:51:16.294Z,0.93
2022-09-02T11:52:16.293Z,0.10
2022-09-02T11:53:16.255Z,1.30
2022-09-02T11:54:16.275Z,0.47
2022-09-02T11:55:16.274Z,1.21
2022-09-02T11:56:16.266Z,1.61
2022-09-02T11:57:16.249Z,1.67
2022-09-02T11:58:16.255Z,1.30
2022-09-02T11:59:16.262Z,1.54
2022-09-02T12:00:16.264Z,1.47
2022-09-02T12:01:16.271Z,1.14
2022-09-02T12:02:16.261Z,0.09
2022-09-02T12:03:35.457Z,0.19
2022-09-02T12:04:56.042Z,0.21
2022-09-02T12:05:16.357Z,0.62
2022-09-02T12:06:16.387Z,0.58
2022-09-02T12:07:16.255Z,1.11
2022-09-02T12:08:16.258Z,0.21
2022-09-02T12:09:16.303Z,0.59
2022-09-02T12:10:16.296Z,1.39
2022-09-02T12:11:16.281Z,1.29
2022-09-02T12:12:16.300Z,1.24
2022-09-02T12:13:16.288Z,1.23
2022-09-02T12:14:16.297Z,1.23
2022-09-02T12:15:16.282Z,1.68
2022-09-02T12:16:16.348Z,0.73
2022-09-02T12:17:16.304Z,0.73
2022-09-02T12:18:16.300Z,0.83
2022-09-02T12:19:16.281Z,0.94
2022-09-02T12:20:16.294Z,1.24
2022-09-02T12:21:23.079Z,1.14
2022-09-02T12:22:16.312Z,0.39
2022-09-02T12:23:16.313Z,0.32
2022-09-02T12:24:16.292Z,1.23
2022-09-02T12:25:16.300Z,1.06
2022-09-02T12:26:16.300Z,1.06
2022-09-02T12:27:16.301Z,0.57
2022-09-02T12:28:19.136Z,0.60
2022-09-02T12:29:16.317Z,0.23
2022-09-02T12:30:16.330Z,0.02
2022-09-02T12:31:16.371Z,1.45
2022-09-02T12:32:16.327Z,1.85
2022-09-02T12:33:16.332Z,1.38
2022-09-02T12:34:16.329Z,0.56
2022-09-02T12:35:16.332Z,0.33
2022-09-02T12:36:16.355Z,0.51
2022-09-02T12:37:16.326Z,1.61
2022-09-02T12:38:16.387Z,0.68
2022-09-02T12:39:16.361Z,1.41
2022-09-02T12:40:16.361Z,1.17
2022-09-02T12:41:16.331Z,1.07
2022-09-02T12:42:16.352Z,1.38
2022-09-02T12:43:16.362Z,0.57
2022-09-02T12:44:16.347Z,0.40
2022-09-02T12:45:16.344Z,0.00
2022-09-02T12:46:16.383Z,0.24
2022-09-02T12:47:16.341Z,0.51
2022-09-02T12:48:16.354Z,1.52
2022-09-02T12:49:16.342Z,1.85
2022-09-02T12:50:16.359Z,1.47
2022-09-02T12:51:16.365Z,1.83
2022-09-02T12:52:16.371Z,1.45
2022-09-02T12:53:19.238Z,0.63
2022-09-02T12:54:16.332Z,1.20
2022-09-02T12:55:16.349Z,1.15
2022-09-02T12:56:16.369Z,0.57
2022-09-02T12:57:16.353Z,0.94
2022-09-02T12:58:16.352Z,0.40
2022-09-02T12:59:16.384Z,0.10
2022-09-02T13:00:16.358Z,1.76
2022-09-02T13:01:16.421Z,1.28
2022-09-02T13:02:16.388Z,1.35
2022-09-02T13:03:16.384Z,0.77
2022-09-02T13:04:16.360Z,0.60
2022-09-02T13:05:16.360Z,0.01
2022-09-02T13:06:16.366Z,1.37
2022-09-02T13:07:16.387Z,1.24
2022-09-02T13:08:16.392Z,0.66
2022-09-02T13:09:16.435Z,0.99
2022-09-02T13:10:16.387Z,1.09
2022-09-02T13:11:16.402Z,1.02
2022-09-02T13:12:16.399Z,0.82
2022-09-02T13:13:16.409Z,0.79
2022-09-02T13:14:16.359Z,0.73
2022-09-02T13:15:18.226Z,0.35
2022-09-02T13:16:18.720Z,0.74
2022-09-02T13:17:35.621Z,1.32
2022-09-02T13:18:16.423Z,0.64
2022-09-02T13:19:16.373Z,1.28
2022-09-02T13:20:16.423Z,0.50